オスロ空港の過去48時間の天気

オスロ空港 (Oslo / Gardermoen)

現在時刻: 9/16 17:10 CEST (9/16 15:10 UTC) 以下の時間は現地時間です。

過去48時間のMETAR気象情報
時間 風向 風速(m/s) 視程 気温(℃) 湿度(%) 気圧(hPa) 天気現象
16 16:50 西北西 2 10km以上 15 31 1004
16 16:20 西 4 10km以上 14 31 1005
16 15:50 西 4 10km以上 15 31 1005
16 15:20 西北西 3 10km以上 14 31 1005
16 14:50 西 4 10km以上 14 31 1005
16 14:20 西北西 3 10km以上 14 31 1005
16 13:50 西 4 10km以上 14 31 1005
16 13:20 西 4 10km以上 13 33 1005
16 12:50 西 4 10km以上 13 35 1005
16 12:20 西北西 4 10km以上 13 38 1005
16 11:50 西北西 4 10km以上 12 38 1005
16 11:20 西北西 5 10km以上 12 41 1005
16 10:50 西北西 5 10km以上 12 41 1004
16 10:20 西北西 4 10km以上 11 43 1004
16 09:50 西北西 4 10km以上 10 46 1004
16 09:20 不定 2 10km以上 9 53 1004
16 08:50 西 2 10km以上 8 57 1003
16 08:20 西南西 2 10km以上 7 61 1003
16 07:50 西南西 2 10km以上 7 57 1003
16 07:20 南西 3 10km以上 7 57 1003
16 06:50 南西 2 10km以上 7 57 1003
16 06:20 不定 1 10km以上 8 53 1003
16 05:50 西 3 10km以上 9 46 1003
16 04:50 3 10km以上 9 43 1003
16 04:20 3 10km以上 9 43 1002
16 03:50 西北西 6 10km以上 10 40 1001
16 03:20 西 5 10km以上 10 40 1001
16 02:50 西 5 10km以上 10 43 1001
16 02:20 西北西 5 10km以上 11 43 1000
16 01:50 西 5 10km以上 11 43 1000
16 01:20 西 4 10km以上 11 47 1000
16 00:50 西 4 10km以上 11 50 999
16 00:20 西南西 3 10km以上 11 50 999
15 23:50 西南西 4 10km以上 11 50 999
15 23:20 南西 3 10km以上 12 47 998
15 22:50 西南西 3 10km以上 11 54 998
15 22:20 西南西 4 10km以上 12 50 997
15 21:50 西南西 4 10km以上 12 50 996
15 21:20 西 3 10km以上 12 50 996
15 20:50 西南西 4 10km以上 12 50 995
15 20:20 西南西 3 10km以上 13 47 995
15 19:50 西南西 6 10km以上 14 44 995
15 19:20 西南西 5 10km以上 14 44 994
15 18:50 西南西 4 10km以上 14 44 994
15 18:20 西南西 6 10km以上 15 41 994
15 17:50 西 5 10km以上 16 36 994
15 17:20 西南西 5 10km以上 16 39 994
15 16:50 西南西 7 10km以上 17 36 994
15 16:20 西 6 10km以上 17 36 994
15 15:50 西南西 5 10km以上 17 36 994
15 15:20 南西 5 10km以上 17 36 994
15 14:50 南西 6 10km以上 16 36 994
15 14:20 南西 6 10km以上 15 39 995
15 13:50 西南西 5 10km以上 15 36 995
15 13:20 南西 7 10km以上 14 38 995
15 12:50 南西 8 10km以上 14 38 995
15 12:20 西南西 5 10km以上 14 38 995
15 11:50 西南西 6 10km以上 13 41 995
15 11:20 南西 5 10km以上 13 44 996
15 10:50 南西 6 10km以上 12 44 996
15 10:20 南西 4 10km以上 12 44 996
15 09:50 南南西 3 10km以上 12 54 995
15 09:20 南南西 3 10km以上 11 58 995
15 08:50 南南西 4 10km以上 10 62 996
15 08:20 南西 5 10km以上 10 66 996
15 07:50 南南西 4 10km以上 9 76 996
15 07:20 南南西 5 10km以上 9 76 997
15 06:50 南南西 4 10km以上 9 81 997
15 06:20 南南西 4 10km以上 9 87 997
15 05:50 南南西 3 10km以上 9 87 998
15 05:20 南南西 3 10km以上 9 87 998
15 04:50 3 10km以上 9 87 999
15 04:20 3 10km以上 10 82 999
15 03:20 南南西 5 10km以上 10 87 1000
15 02:50 南南西 4 10km以上 10 87 1001
15 02:20 南南西 5 10km以上 10 87 1001
15 01:20 南南西 7 10km以上 11 76 1003 弱い雨
15 00:50 南南西 8 10km以上 10 82 1004 弱い雨
15 00:20 南南西 9 10km以上 11 71 1005
14 23:50 南南西 9 10km以上 11 71 1005 弱い雨
14 23:20 南南西 9 10km以上 11 71 1006
14 22:50 南南西 10 10km以上 11 71 1007
14 22:20 6 10km以上 11 71 1008
14 21:50 8 10km以上 11 71 1009
14 21:20 9 10km以上 11 76 1009
14 20:50 8 10km以上 11 82 1010 弱い雨
14 20:20 7 10km以上 10 87 1011
14 19:50 4 10km以上 10 87 1013
14 19:20 6 10km以上 10 87 1014
14 18:50 南南西 7 10km以上 10 87 1014 弱い雨
14 18:20 5 10km以上 10 87 1015 弱い雨
14 17:50 6 10km以上 10 82 1016 弱い雨
14 17:20 5 10km以上 11 71 1017 弱い雨
ENGM 161450Z 29004KT 230V020 CAVOK 15/M02 Q1004 NOSIG
ENGM 161420Z 27007KT 210V340 CAVOK 14/M03 Q1005 NOSIG
ENGM 161350Z 27008KT 210V320 CAVOK 15/M02 Q1005 NOSIG
ENGM 161320Z 30006KT 220V010 CAVOK 14/M03 Q1005 NOSIG
ENGM 161250Z 28008KT 220V020 CAVOK 14/M03 Q1005 NOSIG
ENGM 161220Z 30006KT 230V010 CAVOK 14/M03 Q1005 NOSIG
ENGM 161150Z 28007KT 220V340 CAVOK 14/M03 Q1005 NOSIG
ENGM 161120Z 28008KT 200V330 CAVOK 13/M03 Q1005 NOSIG
ENGM 161050Z 28007KT 210V340 CAVOK 13/M02 Q1005 NOSIG
ENGM 161020Z 30007KT 240V010 CAVOK 13/M01 Q1005 TEMPO 27015G25KT
ENGM 160950Z 29008G19KT 180V350 CAVOK 12/M02 Q1005 NOSIG
ENGM 160920Z 29009KT 210V350 CAVOK 12/M01 Q1005 TEMPO 27015G25KT
ENGM 160850Z 30009KT 240V020 CAVOK 12/M01 Q1004 TEMPO 27015G25KT
ENGM 160820Z 30007KT 240V350 CAVOK 11/M01 Q1004 TEMPO 27015G25KT
ENGM 160750Z 29007G18KT 230V010 CAVOK 10/M01 Q1004 TEMPO 27015G25KT
ENGM 160720Z VRB03KT CAVOK 09/M00 Q1004 NOSIG
ENGM 160650Z 27003KT 170V330 CAVOK 08/M00 Q1003 NOSIG
ENGM 160620Z 24004KT 200V270 CAVOK 07/M00 Q1003 NOSIG
ENGM 160550Z 24003KT 170V300 CAVOK 07/M01 Q1003 NOSIG
ENGM 160520Z 23005KT CAVOK 07/M01 Q1003 NOSIG
ENGM 160450Z 23004KT CAVOK 07/M01 Q1003 NOSIG
ENGM 160420Z VRB02KT CAVOK 08/M01 Q1003 NOSIG
ENGM 160350Z 28005KT 170V340 CAVOK 09/M02 Q1003 NOSIG
ENGM 160250Z VRB05G17KT CAVOK 09/M03 Q1003
ENGM 160220Z VRB05KT CAVOK 09/M03 Q1002
ENGM 160150Z 30011G21KT 240V350 CAVOK 10/M03 Q1001
ENGM 160120Z 28010KT 200V350 CAVOK 10/M03 Q1001
ENGM 160050Z 28009G19KT 220V340 CAVOK 10/M02 Q1001
ENGM 160020Z 29009G21KT 240V340 CAVOK 11/M01 Q1000
ENGM 152350Z 28010G20KT 240V340 CAVOK 11/M01 Q1000
ENGM 152320Z 27007G17KT 220V360 CAVOK 11/00 Q1000
ENGM 152250Z 26007KT 210V360 CAVOK 11/01 Q0999
ENGM 152220Z 25006KT 200V290 CAVOK 11/01 Q0999
ENGM 152150Z 25008KT 210V320 CAVOK 11/01 Q0999
ENGM 152120Z 23006KT CAVOK 12/01 Q0998
ENGM 152050Z 24006KT 210V280 CAVOK 11/02 Q0998 NOSIG
ENGM 152020Z 25008KT 190V320 CAVOK 12/02 Q0997 NOSIG
ENGM 151950Z 24008KT 210V300 CAVOK 12/02 Q0996 NOSIG
ENGM 151920Z 26006KT 220V330 CAVOK 12/02 Q0996 NOSIG
ENGM 151850Z 25007KT 210V320 CAVOK 12/02 Q0995 NOSIG
ENGM 151820Z 24005KT 200V300 CAVOK 13/02 Q0995
ENGM 151750Z 24011KT 190V290 CAVOK 14/02 Q0995 TEMPO 25012G25KT
ENGM 151720Z 24010G22KT 200V290 CAVOK 14/02 Q0994 TEMPO 25008KT
ENGM 151650Z 25008KT 200V340 CAVOK 14/02 Q0994 TEMPO 25012G25KT
ENGM 151620Z 25011G22KT 210V300 CAVOK 15/02 Q0994 NOSIG
ENGM 151550Z 26010G20KT 210V330 CAVOK 16/01 Q0994 NOSIG
ENGM 151520Z 25009KT 210V300 CAVOK 16/02 Q0994 TEMPO 26015G25KT
ENGM 151450Z 25013G24KT 210V300 CAVOK 17/02 Q0994 NOSIG
ENGM 151420Z 27011G25KT 210V360 CAVOK 17/02 Q0994 TEMPO 26010KT
ENGM 151350Z 25010KT 200V310 CAVOK 17/02 Q0994 TEMPO 24015G25KT
ENGM 151320Z 23010KT 200V280 CAVOK 17/02 Q0994 TEMPO 24015G25KT
ENGM 151250Z 23012G22KT 200V280 CAVOK 16/01 Q0994 NOSIG
ENGM 151220Z 23012G22KT 200V260 CAVOK 15/01 Q0995 NOSIG
ENGM 151150Z 24009KT 210V290 CAVOK 15/00 Q0995 TEMPO 24015G25KT
ENGM 151120Z 22014G25KT 200V270 CAVOK 14/00 Q0995 TEMPO 22014KT
ENGM 151050Z 23015KT 210V270 CAVOK 14/00 Q0995 TEMPO 23015G25KT
ENGM 151020Z 24009KT 190V290 CAVOK 14/M00 Q0995 NOSIG
ENGM 150950Z 24012KT 210V290 CAVOK 13/00 Q0995
ENGM 150920Z 23010KT 200V290 9999 FEW050 NSC 13/01 Q0996 NOSIG
ENGM 150850Z 23011KT 200V260 9999 FEW040 12/00 Q0996 NOSIG
ENGM 150820Z 22007KT 170V280 9999 FEW040 12/M00 Q0996 NOSIG
ENGM 150750Z 21006KT 110V270 CAVOK 12/03 Q0995 NOSIG
ENGM 150720Z 21006KT 140V260 9999 FEW047 11/03 Q0995 NOSIG
ENGM 150650Z 21008KT 180V240 CAVOK 10/03 Q0996 NOSIG
ENGM 150620Z 22010KT CAVOK 10/04 Q0996 NOSIG
ENGM 150550Z 21008KT CAVOK 09/05 Q0996 NOSIG
ENGM 150520Z 20010KT 170V230 CAVOK 09/05 Q0997 NOSIG
ENGM 150450Z 21008KT 180V240 CAVOK 09/06 Q0997 NOSIG
ENGM 150420Z 20008KT CAVOK 09/07 Q0997 NOSIG
ENGM 150350Z 21006KT CAVOK 09/07 Q0998 NOSIG
ENGM 150320Z 20006KT 9999 FEW015 09/07 Q0998
ENGM 150250Z 18005KT CAVOK 09/07 Q0999
ENGM 150220Z 18005KT 9999 FEW038 BKN120 BKN240 10/07 Q0999
ENGM 150120Z 21009KT CAVOK 10/08 Q1000
ENGM 150050Z 21008KT 160V240 9999 FEW015 BKN170 10/08 Q1001
ENGM 150020Z 21009KT 180V260 9999 FEW016 BKN120 10/08 Q1001
ENGM 142320Z 21014KT 9999 -RA SCT021 BKN091 11/07 Q1003
ENGM 142250Z 20016KT 170V230 9999 -RA FEW022 SCT032 BKN120 10/07 Q1004
ENGM 142220Z 20017KT 9999 SCT021 BKN035 11/06 Q1005
ENGM 142150Z 20017KT 170V230 9999 -RA SCT024 BKN037 11/06 Q1005
ENGM 142120Z 20018KT 9999 SCT025 BKN084 11/06 Q1006
ENGM 142050Z 20020KT 9999 SCT026 BKN098 11/06 Q1007 TEMPO 20018G28KT
ENGM 142020Z 18012KT 9999 BKN029 11/06 Q1008 NOSIG
ENGM 141950Z 17015KT 9999 BKN031 11/06 Q1009 NOSIG
ENGM 141920Z 18017KT 9999 FEW010 SCT034 BKN041 11/07 Q1009 NOSIG
ENGM 141850Z 18015KT 9999 -RA FEW010 BKN052 11/08 Q1010 NOSIG
ENGM 141820Z 18014KT 9999 FEW010 SCT080 BKN100 10/08 Q1011 NOSIG
ENGM 141750Z 18008KT 9999 FEW010 SCT060 BKN080 10/08 Q1013 NOSIG
ENGM 141720Z 18011KT 9999 FEW010 BKN083 10/08 Q1014 NOSIG
ENGM 141650Z 20013KT 9999 -RA FEW018 BKN070 10/08 Q1014 NOSIG
ENGM 141620Z 19009KT 9999 -RA NSC 10/08 Q1015 NOSIG
ENGM 141550Z 19011KT 9999 -RA NSC 10/07 Q1016 NOSIG
ENGM 141520Z 19010KT 9999 -RA NSC 11/06 Q1017 NOSIG